Time;durP1;ratioP1;P1;durP2;ratioP2;P2;SDS_P1;SDS_P2;PMS_P1;PMS_P2;Temp;Humidity;BMP_temperature;BMP_pressure;BME280_temperature;BME280_humidity;BME280_pressure;Samples;Min_cycle;Max_cycle;Signal;HPM_P1;HPM_P2
2024/03/17 00:00:05;;;;;;;14.30;6.00;;;9.60;99.90;;;;;;7286990;19;20298;-78
2024/03/17 00:02:30;;;;;;;15.13;5.80;;;9.50;99.90;;;;;;7287238;19;20215;-78
2024/03/17 00:04:56;;;;;;;13.57;5.93;;;9.40;99.90;;;;;;7287021;19;20611;-78
2024/03/17 00:07:22;;;;;;;12.57;6.37;;;9.30;99.90;;;;;;7309387;19;20206;-78
2024/03/17 00:09:48;;;;;;;15.07;5.90;;;9.30;99.90;;;;;;7287529;19;20195;-78
2024/03/17 00:12:14;;;;;;;13.83;5.90;;;9.30;99.90;;;;;;7285357;19;20180;-78
2024/03/17 00:14:40;;;;;;;13.43;5.90;;;9.30;99.90;;;;;;7287873;19;20199;-78
2024/03/17 00:17:05;;;;;;;14.80;5.87;;;9.30;99.90;;;;;;7287409;19;20261;-78
2024/03/17 00:19:31;;;;;;;12.13;5.77;;;9.40;99.90;;;;;;7286969;19;20188;-78
2024/03/17 00:21:57;;;;;;;14.70;5.60;;;9.30;99.90;;;;;;7285131;19;20188;-80
2024/03/17 00:24:24;;;;;;;12.27;5.33;;;9.40;99.90;;;;;;7307321;19;20181;-78
2024/03/17 00:26:49;;;;;;;12.37;5.50;;;9.20;99.90;;;;;;7302087;19;20186;-78
2024/03/17 00:29:15;;;;;;;15.27;6.43;;;9.20;99.90;;;;;;7285846;19;20200;-79
2024/03/17 00:31:42;;;;;;;14.30;5.53;;;9.20;99.90;;;;;;7285824;19;20195;-78
2024/03/17 00:34:09;;;;;;;13.27;5.77;;;9.30;99.90;;;;;;7286639;19;20215;-78
2024/03/17 00:36:34;;;;;;;11.97;6.00;;;9.30;99.90;;;;;;7289159;19;20654;-78
2024/03/17 00:39:00;;;;;;;13.63;5.93;;;9.30;99.90;;;;;;7281813;19;20187;-78
2024/03/17 00:41:26;;;;;;;11.73;5.57;;;9.40;99.90;;;;;;7285125;19;20218;-79
2024/03/17 00:43:52;;;;;;;15.37;6.27;;;9.50;99.90;;;;;;7308944;19;20602;-79
2024/03/17 00:46:21;;;;;;;12.40;5.77;;;9.50;99.90;;;;;;7285161;19;20187;-79
2024/03/17 00:48:49;;;;;;;16.03;5.90;;;9.60;99.90;;;;;;7286705;19;20297;-79
2024/03/17 00:51:15;;;;;;;16.50;6.07;;;9.70;99.90;;;;;;7284998;19;20188;-79
2024/03/17 00:53:40;;;;;;;13.73;5.93;;;9.80;99.90;;;;;;7285189;19;20192;-79
2024/03/17 00:56:06;;;;;;;14.30;6.33;;;9.80;99.90;;;;;;7285257;19;20191;-79
2024/03/17 00:58:32;;;;;;;13.83;5.73;;;9.80;99.90;;;;;;7285106;19;20203;-79
2024/03/17 01:00:58;;;;;;;12.33;5.90;;;9.80;99.90;;;;;;7286001;19;20294;-79
2024/03/17 01:03:23;;;;;;;10.73;5.70;;;9.70;99.90;;;;;;7302774;19;20211;-78
2024/03/17 01:05:52;;;;;;;12.93;6.50;;;9.70;99.90;;;;;;7299153;19;20631;-79
2024/03/17 01:08:19;;;;;;;15.67;6.40;;;9.70;99.90;;;;;;7285377;19;20244;-79
2024/03/17 01:10:45;;;;;;;13.07;6.40;;;9.80;99.90;;;;;;7284083;19;20186;-79
2024/03/17 01:13:11;;;;;;;12.93;6.37;;;9.80;99.90;;;;;;7285740;19;20198;-79
2024/03/17 01:15:38;;;;;;;13.93;6.27;;;9.80;99.90;;;;;;7285911;19;20185;-79
2024/03/17 01:18:07;;;;;;;13.10;6.20;;;9.70;99.90;;;;;;7284148;19;20181;-78
2024/03/17 01:20:34;;;;;;;13.07;6.27;;;9.80;99.90;;;;;;7285296;19;20180;-79
2024/03/17 01:23:00;;;;;;;15.67;6.43;;;9.80;99.90;;;;;;7285065;19;20194;-79
2024/03/17 01:25:26;;;;;;;13.63;6.37;;;9.90;99.90;;;;;;7283241;19;20188;-79
2024/03/17 01:27:52;;;;;;;13.23;6.33;;;9.90;99.90;;;;;;7303342;19;20234;-80
2024/03/17 01:30:21;;;;;;;12.50;6.20;;;10.00;99.90;;;;;;7282244;19;20196;-79
2024/03/17 01:32:47;;;;;;;12.47;6.20;;;9.90;99.90;;;;;;7281188;19;20192;-79
2024/03/17 01:35:13;;;;;;;11.57;6.40;;;9.70;99.90;;;;;;7282635;19;20199;-79
2024/03/17 01:37:39;;;;;;;14.73;7.00;;;9.70;99.90;;;;;;7281982;19;20213;-79
2024/03/17 01:40:10;;;;;;;15.57;7.10;;;9.80;99.90;;;;;;7283150;19;20204;-79
2024/03/17 01:42:39;;;;;;;13.33;6.60;;;9.80;99.90;;;;;;7283233;19;20191;-79
2024/03/17 01:45:25;;;;;;;13.90;6.80;;;9.80;99.90;;;;;;7283893;19;20200;-79
2024/03/17 01:47:51;;;;;;;15.87;6.63;;;9.90;99.90;;;;;;7284066;19;20215;-79
2024/03/17 01:50:20;;;;;;;14.13;6.07;;;9.80;99.90;;;;;;7283083;19;20191;-79
2024/03/17 01:52:47;;;;;;;13.33;6.30;;;9.80;99.90;;;;;;7282570;19;20208;-79
2024/03/17 01:55:14;;;;;;;14.80;6.83;;;9.80;99.90;;;;;;7284230;19;20221;-79
2024/03/17 01:57:40;;;;;;;12.27;6.03;;;9.80;99.90;;;;;;7283173;19;20195;-79
2024/03/17 02:00:08;;;;;;;11.37;6.27;;;9.80;99.90;;;;;;7285030;19;20226;-79
2024/03/17 02:02:35;;;;;;;12.83;6.40;;;9.80;99.90;;;;;;7283900;19;20224;-79
2024/03/17 02:05:02;;;;;;;13.73;6.40;;;9.70;99.90;;;;;;7283118;19;20197;-79
2024/03/17 02:07:29;;;;;;;12.17;5.93;;;9.80;99.90;;;;;;7283231;19;20209;-79
2024/03/17 02:09:56;;;;;;;13.83;6.43;;;10.00;99.90;;;;;;7285328;19;20202;-79
2024/03/17 02:12:23;;;;;;;13.57;6.77;;;10.00;99.90;;;;;;7306803;19;20192;-79
2024/03/17 02:14:49;;;;;;;13.37;6.43;;;10.00;99.90;;;;;;7283616;19;20189;-79
2024/03/17 02:17:15;;;;;;;9.60;5.33;;;9.90;99.90;;;;;;7282217;19;20225;-79
2024/03/17 02:19:40;;;;;;;13.20;6.30;;;9.90;99.90;;;;;;7282962;19;20522;-79
2024/03/17 02:22:15;;;;;;;11.37;6.00;;;10.00;99.90;;;;;;7283519;19;20286;-79
2024/03/17 02:24:41;;;;;;;10.83;5.27;;;10.00;99.90;;;;;;7282143;19;20226;-80
2024/03/17 02:27:06;;;;;;;14.13;6.33;;;10.00;99.90;;;;;;7283452;19;20199;-79
2024/03/17 02:29:33;;;;;;;12.83;6.17;;;10.00;99.90;;;;;;7282330;19;20185;-79
2024/03/17 02:31:59;;;;;;;15.17;5.90;;;10.00;99.90;;;;;;7282133;19;20512;-79
2024/03/17 02:34:25;;;;;;;13.83;6.07;;;10.00;99.90;;;;;;7290227;19;20184;-79
2024/03/17 02:36:51;;;;;;;14.20;6.37;;;10.00;99.90;;;;;;7302772;19;20190;-79
2024/03/17 02:39:35;;;;;;;14.77;6.37;;;10.10;99.90;;;;;;7281935;19;20187;-79
2024/03/17 02:42:02;;;;;;;11.27;5.87;;;10.10;99.90;;;;;;7175306;19;2004789;-79
2024/03/17 02:44:30;;;;;;;13.93;5.70;;;10.20;99.90;;;;;;7281283;19;20694;-79
2024/03/17 02:46:57;;;;;;;13.90;5.47;;;10.30;99.90;;;;;;7288661;19;20186;-79
2024/03/17 02:49:24;;;;;;;10.57;5.67;;;10.30;99.90;;;;;;7303840;19;20203;-79
2024/03/17 02:51:50;;;;;;;11.23;5.80;;;10.30;99.90;;;;;;7282241;19;20212;-79
2024/03/17 02:54:15;;;;;;;11.20;5.30;;;10.20;99.90;;;;;;7280834;19;20197;-80
2024/03/17 02:56:42;;;;;;;10.90;5.60;;;10.10;99.90;;;;;;7281287;19;20652;-79
2024/03/17 02:59:07;;;;;;;13.87;5.50;;;10.10;99.90;;;;;;7282179;19;20199;-79
2024/03/17 03:01:34;;;;;;;12.67;5.53;;;10.20;99.90;;;;;;7282388;19;20188;-79
2024/03/17 03:04:00;;;;;;;15.60;5.83;;;10.20;99.90;;;;;;7286625;19;20671;-79
2024/03/17 03:06:26;;;;;;;11.93;5.27;;;10.20;99.90;;;;;;7289717;19;20198;-80
2024/03/17 03:08:51;;;;;;;10.27;5.53;;;10.20;99.90;;;;;;7309942;19;20192;-79
2024/03/17 03:11:17;;;;;;;12.03;5.70;;;10.10;99.90;;;;;;7287772;19;21075;-80
2024/03/17 03:13:43;;;;;;;13.07;5.23;;;10.30;99.90;;;;;;7287625;19;20193;-79
2024/03/17 03:16:14;;;;;;;14.17;5.67;;;10.30;99.90;;;;;;7287581;19;20181;-79
2024/03/17 03:18:40;;;;;;;12.53;5.77;;;10.20;99.90;;;;;;7289194;19;20209;-79
2024/03/17 03:21:06;;;;;;;12.97;5.80;;;10.20;99.90;;;;;;7288388;19;20220;-79
2024/03/17 03:23:33;;;;;;;10.30;5.33;;;10.20;99.90;;;;;;7287437;19;20192;-79
2024/03/17 03:26:04;;;;;;;12.23;5.27;;;10.20;99.90;;;;;;7287741;19;20689;-79
2024/03/17 03:28:33;;;;;;;12.77;5.57;;;10.20;99.90;;;;;;7286446;19;20246;-80
2024/03/17 03:30:59;;;;;;;11.67;4.93;;;10.10;99.90;;;;;;7285633;19;21006;-79
2024/03/17 03:33:25;;;;;;;9.30;5.03;;;10.00;99.90;;;;;;7299959;19;20215;-79
2024/03/17 03:35:50;;;;;;;13.93;4.90;;;10.00;99.90;;;;;;7307292;19;20195;-80
2024/03/17 03:38:17;;;;;;;12.53;5.17;;;9.70;99.90;;;;;;7287545;19;20300;-79
2024/03/17 03:40:43;;;;;;;11.87;5.27;;;9.60;99.90;;;;;;7287519;19;20196;-80
2024/03/17 03:43:10;;;;;;;9.40;4.63;;;9.60;99.90;;;;;;7288042;19;20567;-80
2024/03/17 03:45:36;;;;;;;10.63;4.90;;;9.50;99.90;;;;;;7287676;19;20200;-80
2024/03/17 03:48:03;;;;;;;10.77;5.40;;;9.60;99.90;;;;;;7287554;19;20556;-80
2024/03/17 03:50:29;;;;;;;11.03;5.30;;;9.50;99.90;;;;;;7288430;19;20195;-80
2024/03/17 03:52:55;;;;;;;11.17;5.60;;;9.50;99.90;;;;;;7292046;19;20195;-79
2024/03/17 03:55:21;;;;;;;11.93;5.47;;;9.50;99.90;;;;;;7309370;19;20187;-80
2024/03/17 03:57:48;;;;;;;11.47;5.00;;;9.60;99.90;;;;;;7287021;19;20191;-79
2024/03/17 04:00:21;;;;;;;10.83;5.13;;;9.50;99.90;;;;;;7287382;19;20193;-79
2024/03/17 04:02:52;;;;;;;10.90;5.33;;;9.50;99.90;;;;;;7286863;19;20291;-79
2024/03/17 04:05:19;;;;;;;12.30;5.63;;;9.50;99.90;;;;;;7287625;19;20191;-79
2024/03/17 04:07:46;;;;;;;10.17;5.00;;;9.50;99.90;;;;;;7286691;19;20192;-80
2024/03/17 04:10:13;;;;;;;10.70;5.17;;;9.50;99.90;;;;;;7287502;19;20515;-80
2024/03/17 04:12:39;;;;;;;10.63;5.33;;;9.40;99.90;;;;;;7285245;19;20195;-79
2024/03/17 04:15:09;;;;;;;12.73;5.37;;;9.40;99.90;;;;;;7286821;19;20209;-79
2024/03/17 04:17:37;;;;;;;13.40;5.80;;;9.30;99.90;;;;;;7286504;19;20190;-79
2024/03/17 04:20:04;;;;;;;10.40;5.60;;;9.30;99.90;;;;;;7286446;19;20824;-79
2024/03/17 04:22:31;;;;;;;10.23;5.27;;;9.30;99.90;;;;;;7286847;19;20195;-79
2024/03/17 04:24:57;;;;;;;14.33;5.93;;;9.40;99.90;;;;;;7285747;19;20196;-79
2024/03/17 04:27:28;;;;;;;11.17;5.60;;;9.40;99.90;;;;;;7307269;19;20201;-79
2024/03/17 04:29:59;;;;;;;11.27;5.37;;;9.40;99.90;;;;;;7280932;19;20219;-79
2024/03/17 04:32:28;;;;;;;11.27;5.63;;;9.40;99.90;;;;;;7297874;19;20951;-79
2024/03/17 04:34:55;;;;;;;11.43;5.50;;;9.40;99.90;;;;;;7295851;19;20198;-79
2024/03/17 04:37:22;;;;;;;11.10;5.30;;;9.30;99.90;;;;;;7304408;19;20278;-79
2024/03/17 04:39:48;;;;;;;11.30;5.50;;;9.30;99.90;;;;;;7285472;19;20647;-79
2024/03/17 04:42:16;;;;;;;12.90;5.63;;;9.40;99.90;;;;;;7284856;19;20990;-79
2024/03/17 04:44:42;;;;;;;14.80;5.70;;;9.30;99.90;;;;;;7284433;19;20195;-79
2024/03/17 04:47:09;;;;;;;10.83;5.20;;;9.40;99.90;;;;;;7284839;19;20580;-79
2024/03/17 04:49:40;;;;;;;12.20;6.03;;;9.40;99.90;;;;;;7284242;19;20274;-79
2024/03/17 04:52:07;;;;;;;11.70;5.53;;;9.40;99.90;;;;;;7283735;19;20198;-79
2024/03/17 04:54:33;;;;;;;13.00;5.90;;;9.40;99.90;;;;;;7282539;19;20200;-79
2024/03/17 04:56:59;;;;;;;11.13;5.63;;;9.30;99.90;;;;;;7280554;19;20192;-79
2024/03/17 04:59:25;;;;;;;11.57;5.70;;;9.40;99.90;;;;;;7295357;19;20202;-78
2024/03/17 05:01:51;;;;;;;13.90;5.93;;;9.50;99.90;;;;;;7306375;19;20193;-79
2024/03/17 05:04:17;;;;;;;13.67;5.97;;;9.40;99.90;;;;;;7285007;19;20206;-79
2024/03/17 05:06:46;;;;;;;14.30;5.57;;;9.40;99.90;;;;;;7286442;19;20192;-79
2024/03/17 05:09:18;;;;;;;12.37;5.17;;;9.50;99.90;;;;;;7284466;19;20196;-80
2024/03/17 05:11:44;;;;;;;14.27;5.83;;;9.40;99.90;;;;;;7284620;19;20574;-79
2024/03/17 05:14:10;;;;;;;12.63;5.80;;;9.50;99.90;;;;;;7284777;19;20213;-79
2024/03/17 05:16:36;;;;;;;10.43;5.67;;;9.50;99.90;;;;;;7285049;19;20188;-79
2024/03/17 05:19:03;;;;;;;11.70;6.03;;;9.50;99.90;;;;;;7283512;19;20190;-79
2024/03/17 05:21:32;;;;;;;13.30;5.80;;;9.70;99.90;;;;;;7287868;19;20203;-78
2024/03/17 05:24:00;;;;;;;13.00;6.07;;;9.60;99.90;;;;;;7280805;19;20239;-78
2024/03/17 05:26:27;;;;;;;11.87;5.87;;;9.70;99.90;;;;;;7284436;19;20204;-78
2024/03/17 05:28:53;;;;;;;12.20;5.90;;;9.90;99.90;;;;;;7306446;19;20552;-78
2024/03/17 05:31:21;;;;;;;13.03;6.00;;;9.90;99.90;;;;;;7284404;19;20200;-79
2024/03/17 05:33:47;;;;;;;14.30;6.07;;;9.90;99.90;;;;;;7284494;19;20568;-80
2024/03/17 05:36:13;;;;;;;12.40;5.87;;;9.90;99.90;;;;;;7285194;19;20188;-79
2024/03/17 05:38:39;;;;;;;9.93;5.63;;;9.80;99.90;;;;;;7283036;19;20188;-79
2024/03/17 05:41:07;;;;;;;14.00;5.43;;;9.80;99.90;;;;;;7285540;19;20217;-79
2024/03/17 05:43:37;;;;;;;11.60;5.70;;;9.70;99.90;;;;;;7283064;19;20187;-79
2024/03/17 05:46:11;;;;;;;12.13;5.90;;;9.60;99.90;;;;;;7284382;19;20686;-79
2024/03/17 05:48:39;;;;;;;14.53;5.63;;;9.60;99.90;;;;;;7284597;19;20186;-79
2024/03/17 05:51:12;;;;;;;10.03;5.43;;;9.70;99.90;;;;;;7282656;19;20215;-79
2024/03/17 05:53:40;;;;;;;13.30;6.00;;;9.70;99.90;;;;;;7283327;19;20188;-79
2024/03/17 05:56:11;;;;;;;11.17;5.80;;;9.70;99.90;;;;;;7283717;19;20195;-79
2024/03/17 05:58:37;;;;;;;13.10;6.00;;;9.80;99.90;;;;;;7283264;19;20219;-79
2024/03/17 06:01:03;;;;;;;11.53;5.83;;;9.90;99.90;;;;;;7283419;19;20189;-81
2024/03/17 06:03:29;;;;;;;14.57;6.20;;;9.90;99.90;;;;;;7284665;19;20187;-78
2024/03/17 06:05:55;;;;;;;11.80;5.50;;;10.00;99.90;;;;;;7298499;19;20196;-78
2024/03/17 06:08:21;;;;;;;11.70;6.03;;;10.10;99.90;;;;;;7298424;19;20526;-79
2024/03/17 06:10:48;;;;;;;11.47;5.77;;;10.10;99.90;;;;;;7281630;19;20223;-78
2024/03/17 06:13:16;;;;;;;14.23;5.93;;;10.10;99.90;;;;;;7284005;19;20229;-78
2024/03/17 06:15:43;;;;;;;12.30;5.80;;;10.10;99.90;;;;;;7283259;19;20193;-78
2024/03/17 06:18:13;;;;;;;12.47;5.53;;;10.10;99.90;;;;;;7282158;19;20696;-79
2024/03/17 06:20:43;;;;;;;10.93;5.63;;;10.10;99.90;;;;;;7285808;19;20188;-79
2024/03/17 06:23:09;;;;;;;12.63;5.80;;;10.10;99.90;;;;;;7282548;19;20193;-78
2024/03/17 06:25:43;;;;;;;10.10;5.43;;;10.10;99.90;;;;;;7282335;19;20249;-79
2024/03/17 06:28:16;;;;;;;10.87;5.73;;;10.00;99.90;;;;;;7282169;19;20188;-79
2024/03/17 06:30:49;;;;;;;12.20;5.43;;;10.00;99.90;;;;;;7280924;19;20232;-78
2024/03/17 06:33:19;;;;;;;10.87;5.80;;;10.00;99.90;;;;;;7283541;19;20223;-80
2024/03/17 06:35:47;;;;;;;9.73;4.90;;;10.10;99.90;;;;;;7284112;19;20695;-80
2024/03/17 06:38:15;;;;;;;11.20;5.43;;;10.00;99.90;;;;;;7287666;19;20200;-80
2024/03/17 06:40:41;;;;;;;10.27;5.07;;;10.00;99.90;;;;;;7290308;19;20517;-79
2024/03/17 06:43:07;;;;;;;20.83;7.43;;;10.10;99.90;;;;;;7288507;19;20213;-80
2024/03/17 06:45:34;;;;;;;12.73;5.80;;;10.20;99.90;;;;;;7289531;19;20191;-79
2024/03/17 06:48:00;;;;;;;16.97;6.23;;;10.30;99.90;;;;;;7289678;19;20285;-80
2024/03/17 06:50:26;;;;;;;12.00;5.50;;;10.30;99.90;;;;;;7296992;19;20572;-78
2024/03/17 06:52:52;;;;;;;14.30;5.90;;;10.40;99.90;;;;;;7311519;19;20189;-78
2024/03/17 06:55:18;;;;;;;13.47;5.07;;;10.50;99.90;;;;;;7289174;19;20242;-80
2024/03/17 06:57:44;;;;;;;12.07;5.00;;;10.50;99.90;;;;;;7288867;19;20185;-81
2024/03/17 07:00:14;;;;;;;14.20;5.83;;;10.60;99.90;;;;;;7285082;19;20304;-81
2024/03/17 07:02:44;;;;;;;12.10;5.50;;;10.80;99.90;;;;;;7286259;19;20213;-80
2024/03/17 07:05:16;;;;;;;10.10;5.20;;;11.10;99.90;;;;;;7287663;19;20652;-81
2024/03/17 07:07:43;;;;;;;10.10;5.07;;;11.30;99.90;;;;;;7288196;19;20644;-79
2024/03/17 07:10:11;;;;;;;11.13;5.50;;;11.30;99.90;;;;;;7286650;19;20470;-80
2024/03/17 07:12:37;;;;;;;11.60;6.50;;;11.20;99.90;;;;;;7289751;19;20220;-80
2024/03/17 07:15:04;;;;;;;12.83;5.50;;;11.20;99.90;;;;;;7287900;19;20181;-79
2024/03/17 07:17:30;;;;;;;11.10;4.90;;;11.20;99.90;;;;;;7286557;19;20200;-79
2024/03/17 07:19:55;;;;;;;11.77;5.80;;;11.20;99.90;;;;;;7298285;19;20184;-78
2024/03/17 07:22:22;;;;;;;12.17;5.40;;;11.10;99.90;;;;;;7306225;19;20185;-80
2024/03/17 07:24:55;;;;;;;12.93;5.17;;;11.20;99.90;;;;;;7287239;19;20181;-79
2024/03/17 07:27:21;;;;;;;15.90;5.60;;;11.30;99.90;;;;;;7288262;19;20565;-79
2024/03/17 07:29:46;;;;;;;9.83;4.23;;;11.50;99.90;;;;;;7285816;19;20190;-80
2024/03/17 07:32:12;;;;;;;14.33;5.00;;;11.60;99.90;;;;;;7282680;19;20204;-81
2024/03/17 07:34:38;;;;;;;10.33;4.57;;;11.40;99.90;;;;;;7284460;19;20624;-81
2024/03/17 07:37:04;;;;;;;11.37;4.60;;;11.50;99.90;;;;;;7285824;19;20198;-81
2024/03/17 07:39:35;;;;;;;9.87;4.60;;;11.50;99.90;;;;;;7285282;19;20680;-80
2024/03/17 07:42:05;;;;;;;12.23;4.83;;;11.70;99.90;;;;;;7284071;19;20215;-80
2024/03/17 07:44:34;;;;;;;9.87;4.40;;;11.60;99.90;;;;;;7285665;19;20189;-80
2024/03/17 07:47:03;;;;;;;9.83;4.40;;;11.70;99.90;;;;;;7284778;19;20189;-81
2024/03/17 07:49:30;;;;;;;10.83;4.20;;;12.00;99.90;;;;;;7288870;19;20195;-82
2024/03/17 07:51:57;;;;;;;10.63;4.37;;;11.90;99.90;;;;;;7295281;19;20668;-81
2024/03/17 07:54:24;;;;;;;11.37;4.20;;;12.00;99.90;;;;;;7306923;19;20670;-83
2024/03/17 07:56:49;;;;;;;10.60;3.53;;;12.00;99.90;;;;;;7284957;19;20192;-82
2024/03/17 07:59:17;;;;;;;12.97;3.97;;;11.90;99.90;;;;;;7284733;19;20195;-81
2024/03/17 08:01:43;;;;;;;9.53;4.10;;;12.00;99.90;;;;;;7283447;19;20636;-81
2024/03/17 08:04:11;;;;;;;9.27;3.97;;;12.20;99.90;;;;;;7285151;19;20194;-81
2024/03/17 08:06:40;;;;;;;9.13;3.97;;;12.20;99.90;;;;;;7284057;19;20193;-81
2024/03/17 08:09:08;;;;;;;8.10;3.70;;;12.40;99.90;;;;;;7284648;19;20200;-81
2024/03/17 08:11:34;;;;;;;9.13;3.73;;;12.30;99.90;;;;;;7284089;19;20652;-80
2024/03/17 08:14:01;;;;;;;8.07;3.40;;;12.50;99.90;;;;;;7282290;19;20193;-82
2024/03/17 08:16:28;;;;;;;10.73;4.30;;;12.60;99.90;;;;;;7282832;19;20708;-81
2024/03/17 08:18:53;;;;;;;7.93;3.57;;;12.70;99.90;;;;;;7306874;19;20879;-81
2024/03/17 08:21:19;;;;;;;8.73;3.27;;;12.80;99.90;;;;;;7283162;19;20666;-81
2024/03/17 08:23:47;;;;;;;9.60;3.20;;;13.00;99.90;;;;;;7282547;19;20224;-80
2024/03/17 08:26:13;;;;;;;9.13;3.37;;;12.80;99.90;;;;;;7279548;19;20264;-80
2024/03/17 08:28:39;;;;;;;8.20;3.17;;;13.00;99.90;;;;;;7282206;19;20199;-80
2024/03/17 08:31:05;;;;;;;8.30;3.33;;;13.20;99.90;;;;;;7269119;19;297272;-80
2024/03/17 08:33:32;;;;;;;8.80;3.53;;;13.20;99.90;;;;;;7285137;19;20217;-81
2024/03/17 08:36:01;;;;;;;10.70;3.70;;;13.20;99.90;;;;;;7284749;19;20184;-80
2024/03/17 08:38:29;;;;;;;8.07;3.37;;;13.20;99.90;;;;;;7285012;19;20186;-80
2024/03/17 08:40:56;;;;;;;7.80;3.13;;;13.30;99.90;;;;;;7306925;19;20183;-79
2024/03/17 08:43:22;;;;;;;11.60;3.40;;;13.40;99.90;;;;;;7285865;19;20219;-79
2024/03/17 08:46:01;;;;;;;7.50;3.40;;;13.30;99.90;;;;;;7284771;19;20544;-79
2024/03/17 08:48:28;;;;;;;11.20;3.47;;;13.30;99.90;;;;;;7265281;19;20298;-78
2024/03/17 08:50:55;;;;;;;9.17;3.53;;;13.20;99.90;;;;;;7303172;19;20215;-79
2024/03/17 08:53:22;;;;;;;8.47;3.40;;;13.40;99.90;;;;;;7284545;19;20187;-79
2024/03/17 08:55:48;;;;;;;9.23;3.77;;;13.60;99.90;;;;;;7283671;19;20185;-80
2024/03/17 08:58:14;;;;;;;6.90;3.03;;;13.90;99.90;;;;;;7283009;19;20251;-79
2024/03/17 09:00:44;;;;;;;8.10;3.60;;;14.00;99.90;;;;;;7282901;19;20726;-80
2024/03/17 09:03:10;;;;;;;10.00;3.87;;;14.00;99.90;;;;;;7283673;19;20207;-79
2024/03/17 09:05:44;;;;;;;10.57;3.53;;;14.00;99.90;;;;;;7284699;19;20192;-79
2024/03/17 09:08:20;;;;;;;9.10;3.30;;;13.90;99.90;;;;;;7284597;19;20707;-79
2024/03/17 09:10:47;;;;;;;10.20;3.67;;;13.80;99.90;;;;;;7282829;19;20211;-79
2024/03/17 09:13:15;;;;;;;8.17;3.50;;;13.70;99.90;;;;;;7285725;19;20252;-79
2024/03/17 09:15:41;;;;;;;9.40;3.40;;;13.60;99.90;;;;;;7285038;19;20185;-80
2024/03/17 09:18:07;;;;;;;7.93;3.10;;;13.50;99.90;;;;;;7278793;19;20201;-79
2024/03/17 09:20:32;;;;;;;10.13;3.43;;;13.60;99.90;;;;;;7283716;19;20655;-79
2024/03/17 09:22:58;;;;;;;9.13;3.37;;;13.60;99.90;;;;;;7284646;19;20206;-79
2024/03/17 09:25:24;;;;;;;8.03;3.27;;;13.60;99.90;;;;;;7305061;19;20246;-80
2024/03/17 09:27:50;;;;;;;9.17;3.60;;;13.20;99.90;;;;;;7283939;19;20754;-80
2024/03/17 09:30:15;;;;;;;10.37;4.23;;;13.20;99.90;;;;;;7283469;19;20216;-80
2024/03/17 09:32:41;;;;;;;9.53;4.63;;;13.10;99.90;;;;;;7283630;19;20194;-80
2024/03/17 09:35:08;;;;;;;13.03;5.43;;;13.20;99.90;;;;;;7281985;19;20555;-79
2024/03/17 09:37:34;;;;;;;12.93;4.63;;;13.40;99.90;;;;;;7286024;19;20195;-79
2024/03/17 09:40:00;;;;;;;7.03;3.00;;;13.50;99.90;;;;;;7283596;19;20300;-79
2024/03/17 09:42:29;;;;;;;9.30;3.73;;;13.60;99.90;;;;;;7293928;19;20197;-79
2024/03/17 09:44:56;;;;;;;8.97;3.90;;;13.70;99.90;;;;;;7303734;19;20206;-79
2024/03/17 09:47:24;;;;;;;7.67;3.00;;;14.00;99.90;;;;;;7304784;19;20203;-80
2024/03/17 09:49:50;;;;;;;7.80;3.27;;;14.00;99.90;;;;;;7283283;19;20205;-80
2024/03/17 09:52:23;;;;;;;9.17;3.30;;;14.10;99.90;;;;;;7282628;19;20174;-79
2024/03/17 09:55:09;;;;;;;6.30;2.87;;;14.30;99.90;;;;;;7283818;19;20198;-80
2024/03/17 09:57:36;;;;;;;10.77;3.23;;;14.30;99.90;;;;;;7179098;19;2004749;-80
2024/03/17 10:00:12;;;;;;;12.83;3.50;;;14.20;99.90;;;;;;7282432;19;20228;-80
2024/03/17 10:02:48;;;;;;;8.70;3.80;;;14.10;99.90;;;;;;7284113;19;20182;-83
2024/03/17 10:05:24;;;;;;;13.30;5.07;;;14.00;99.90;;;;;;7282572;19;20207;-80
2024/03/17 10:07:51;;;;;;;12.43;4.47;;;14.10;99.90;;;;;;7284286;19;20313;-80
2024/03/17 10:10:20;;;;;;;11.33;3.80;;;14.00;99.90;;;;;;7282388;19;20193;-82
2024/03/17 10:12:52;;;;;;;14.27;4.53;;;14.00;99.90;;;;;;7282166;19;20704;-83
2024/03/17 10:15:19;;;;;;;10.17;4.70;;;14.30;99.90;;;;;;7281639;19;20191;-82
2024/03/17 10:17:45;;;;;;;11.60;4.60;;;14.50;99.90;;;;;;7280353;19;20187;-82
2024/03/17 10:20:23;;;;;;;11.10;4.37;;;14.60;99.90;;;;;;7279890;19;20200;-82
2024/03/17 10:23:01;;;;;;;10.30;3.90;;;14.80;99.90;;;;;;7280438;19;20755;-82
2024/03/17 10:25:29;;;;;;;7.87;3.13;;;14.90;99.90;;;;;;7260122;19;20651;-82
2024/03/17 10:27:56;;;;;;;9.83;3.53;;;15.00;99.90;;;;;;7304746;19;20193;-83
2024/03/17 10:30:24;;;;;;;11.70;4.10;;;15.20;99.90;;;;;;7283192;19;20189;-82
2024/03/17 10:32:55;;;;;;;11.23;4.03;;;15.40;99.90;;;;;;7283333;19;20681;-83
2024/03/17 10:35:28;;;;;;;12.30;4.60;;;15.40;99.90;;;;;;7283376;19;20204;-82
2024/03/17 10:37:59;;;;;;;9.23;3.40;;;15.50;99.90;;;;;;7283712;19;20265;-83
2024/03/17 10:40:26;;;;;;;8.47;3.20;;;15.50;99.90;;;;;;7282898;19;20229;-83
2024/03/17 10:42:52;;;;;;;8.33;2.93;;;15.40;99.90;;;;;;7283505;19;20665;-82
2024/03/17 10:45:18;;;;;;;10.37;3.00;;;15.30;99.90;;;;;;7282058;19;20221;-83
2024/03/17 10:47:49;;;;;;;9.93;2.73;;;15.10;99.90;;;;;;7283709;19;21697;-82
2024/03/17 10:50:21;;;;;;;8.83;2.90;;;15.20;99.90;;;;;;7282824;19;21210;-82
2024/03/17 10:52:52;;;;;;;13.83;4.13;;;15.50;99.90;;;;;;7279319;19;20196;-82
2024/03/17 10:55:26;;;;;;;9.07;4.87;;;15.90;99.90;;;;;;7281219;19;20193;-83
2024/03/17 10:57:57;;;;;;;8.13;2.80;;;16.00;99.90;;;;;;7281338;19;20273;-83
2024/03/17 11:00:25;;;;;;;7.63;2.53;;;16.60;99.90;;;;;;7283218;19;20188;-81
2024/03/17 11:02:58;;;;;;;9.10;2.60;;;17.40;99.90;;;;;;7283545;19;20203;-81
2024/03/17 11:05:29;;;;;;;5.97;2.00;;;17.90;99.90;;;;;;7282660;19;20200;-82
2024/03/17 11:07:59;;;;;;;9.73;2.30;;;17.90;99.90;;;;;;7281604;19;20196;-81
2024/03/17 11:10:28;;;;;;;8.30;2.33;;;18.30;99.90;;;;;;7281937;19;20232;-82
2024/03/17 11:12:58;;;;;;;7.57;1.90;;;18.50;99.90;;;;;;7282126;19;20660;-82
2024/03/17 11:15:29;;;;;;;7.90;2.30;;;18.40;99.90;;;;;;7282375;19;20207;-82
2024/03/17 11:18:10;;;;;;;10.40;2.20;;;18.10;99.90;;;;;;7281028;19;20740;-82
2024/03/17 11:20:39;;;;;;;9.87;2.40;;;17.90;99.90;;;;;;7180302;19;2005000;-81
2024/03/17 11:23:05;;;;;;;8.90;2.33;;;18.20;99.90;;;;;;7286157;19;20200;-81
2024/03/17 11:25:38;;;;;;;7.23;2.00;;;18.30;99.90;;;;;;7287158;19;20177;-81
2024/03/17 11:28:09;;;;;;;10.03;2.50;;;18.10;99.90;;;;;;7288663;19;20581;-81
2024/03/17 11:30:47;;;;;;;6.47;1.50;;;18.20;99.90;;;;;;7288940;19;20207;-81
2024/03/17 11:33:37;;;;;;;6.97;1.70;;;18.00;99.90;;;;;;7286599;19;20675;-81
2024/03/17 11:36:27;;;;;;;9.27;2.10;;;18.40;99.90;;;;;;7186478;19;2004590;-82
2024/03/17 11:39:03;;;;;;;5.97;1.70;;;19.40;99.90;;;;;;7286372;19;20701;-81
2024/03/17 11:41:34;;;;;;;7.87;1.50;;;19.50;99.90;;;;;;7265671;19;20188;-81
2024/03/17 11:44:21;;;;;;;7.80;1.47;;;19.90;99.90;;;;;;7288947;19;20243;-82
2024/03/17 11:46:55;;;;;;;7.20;1.60;;;20.10;99.90;;;;;;7287646;19;20185;-82
2024/03/17 11:49:30;;;;;;;6.90;1.33;;;20.00;99.90;;;;;;7287191;19;20184;-82
2024/03/17 11:51:59;;;;;;;10.40;1.77;;;19.90;99.90;;;;;;7283722;19;20194;-81
2024/03/17 11:54:29;;;;;;;9.60;1.67;;;19.30;99.90;;;;;;7309606;19;20182;-82
2024/03/17 11:57:00;;;;;;;6.07;1.43;;;18.40;99.90;;;;;;7287926;19;20663;-83
2024/03/17 11:59:26;;;;;;;6.53;1.60;;;18.00;99.90;;;;;;7277697;19;20698;-82
2024/03/17 12:01:52;;;;;;;6.70;1.60;;;18.10;99.90;;;;;;7305880;19;20193;-82
2024/03/17 12:04:20;;;;;;;8.23;1.57;;;18.50;99.90;;;;;;7287057;19;20187;-82
2024/03/17 12:06:47;;;;;;;7.33;1.50;;;19.00;99.90;;;;;;7287963;19;20205;-82
2024/03/17 12:09:27;;;;;;;8.77;1.70;;;19.00;99.90;;;;;;7270133;19;20210;-81
2024/03/17 12:12:07;;;;;;;6.50;1.40;;;18.50;99.90;;;;;;7282813;19;20272;-81
2024/03/17 12:14:33;;;;;;;6.23;1.67;;;19.40;99.90;;;;;;7180293;19;2006543;-81
2024/03/17 12:17:01;;;;;;;8.77;1.43;;;19.90;99.90;;;;;;7281461;19;20187;-81
2024/03/17 12:19:28;;;;;;;10.17;1.83;;;20.00;99.90;;;;;;7285760;19;20216;-81
2024/03/17 12:22:01;;;;;;;6.37;1.57;;;19.80;99.90;;;;;;7306257;19;20196;-81
2024/03/17 12:24:35;;;;;;;11.73;4.67;;;20.00;99.90;;;;;;7265312;19;20194;-81
2024/03/17 12:27:04;;;;;;;9.23;1.70;;;20.10;99.90;;;;;;7286414;19;20191;-81
2024/03/17 12:29:41;;;;;;;7.07;1.60;;;19.80;99.90;;;;;;7282209;19;20188;-81
2024/03/17 12:32:15;;;;;;;8.30;1.50;;;19.20;99.90;;;;;;7281942;19;20208;-81
2024/03/17 12:34:42;;;;;;;6.93;1.40;;;18.70;99.90;;;;;;7279943;19;20185;-81
2024/03/17 12:37:13;;;;;;;6.90;1.60;;;18.40;99.90;;;;;;7282159;19;20181;-81
2024/03/17 12:39:42;;;;;;;4.57;1.13;;;18.30;99.90;;;;;;7279945;19;20195;-81
2024/03/17 12:42:14;;;;;;;8.07;1.80;;;18.30;99.90;;;;;;7280584;19;20213;-81
2024/03/17 12:44:47;;;;;;;5.67;1.37;;;18.30;99.90;;;;;;7280752;19;20200;-81
2024/03/17 12:47:17;;;;;;;7.67;1.23;;;18.20;99.90;;;;;;7281006;19;20184;-82